Terminal Aerodrome Forecast
Issued by NWS Glasgow, MT

Home | Current Version | Previous Version | Text Only | Print | Product List | Glossary On
Versions: 1 2 3 4 5 6 7 8 9 10 11 12 13 14
000
FTUS45 KGGW 251100
TAFGGW
TAF
KGGW 251140Z 2512/2612 32010KT P6SM VCSH OVC090
     FM251600 30010KT 6SM -SHRA BKN014 OVC026
     FM260000 31009KT P6SM BKN040 BKN060
     FM260600 VRB04KT P6SM FEW060 SCT240=

USA.gov is the U.S. government's official web portal to all federal, state and local government web resources and services.